Time;durP1;ratioP1;P1;durP2;ratioP2;P2;SDS_P1;SDS_P2;PMS_P1;PMS_P2;Temp;Humidity;BMP_temperature;BMP_pressure;BME280_temperature;BME280_humidity;BME280_pressure;Samples;Min_cycle;Max_cycle;Signal;HPM_P1;HPM_P2
2022/06/07 00:00:41;;;;;;;1.52;0.70;;;16.90;59.50;18.90;93937.00;;;;10320469;28;45111;-67
2022/06/07 00:06:02;;;;;;;1.35;0.70;;;16.80;60.10;18.90;93937.00;;;;10319815;28;45125;-67
2022/06/07 00:11:23;;;;;;;1.00;0.80;;;16.80;59.40;18.90;93920.00;;;;10320024;28;45764;-66
2022/06/07 00:16:44;;;;;;;0.98;0.70;;;16.80;59.40;18.90;93928.00;;;;10319687;28;45160;-66
2022/06/07 00:22:05;;;;;;;0.68;0.60;;;16.80;59.40;18.90;93931.00;;;;10319712;28;45209;-66
2022/06/07 00:27:28;;;;;;;1.10;0.70;;;16.80;59.40;18.90;93926.00;;;;10318964;28;45815;-67
2022/06/07 00:32:48;;;;;;;3.28;0.70;;;16.80;59.50;18.90;93927.00;;;;10319031;28;45191;-67
2022/06/07 00:38:10;;;;;;;0.88;0.68;;;16.80;59.50;18.90;93916.00;;;;10318035;28;45308;-67
2022/06/07 00:43:32;;;;;;;1.90;0.70;;;16.80;59.50;18.90;93911.00;;;;10317732;28;45248;-66
2022/06/07 00:48:52;;;;;;;1.10;0.68;;;16.80;59.60;18.90;93909.00;;;;10317929;28;45683;-66
2022/06/07 00:54:19;;;;;;;0.50;0.50;;;16.80;59.50;18.90;93914.00;;;;10318408;28;45682;-67
2022/06/07 00:59:41;;;;;;;1.47;0.60;;;16.80;59.50;18.90;93904.00;;;;10314501;28;45107;-66
2022/06/07 01:05:02;;;;;;;1.63;0.55;;;16.80;59.50;18.90;93890.00;;;;10314976;28;45151;-67
2022/06/07 01:16:06;;;;;;;1.30;0.60;;;16.80;59.50;18.90;93873.00;;;;10317777;28;45914;-66
2022/06/07 01:21:33;;;;;;;0.85;0.60;;;16.80;59.50;18.90;93874.00;;;;10317748;28;45703;-67
2022/06/07 01:26:54;;;;;;;0.63;0.50;;;16.80;59.60;18.90;93865.00;;;;10317208;28;45179;-67
2022/06/07 01:32:15;;;;;;;0.82;0.50;;;16.80;60.30;18.90;93857.00;;;;10317383;28;45188;-66
2022/06/07 01:37:37;;;;;;;0.65;0.40;;;16.80;59.60;18.90;93858.00;;;;10316716;28;45795;-66
2022/06/07 01:42:58;;;;;;;0.43;0.40;;;16.80;59.60;18.90;93868.00;;;;10316493;28;45245;-66
2022/06/07 01:48:18;;;;;;;0.40;0.40;;;16.80;59.60;18.90;93859.00;;;;10316549;28;45385;-66
2022/06/07 01:53:41;;;;;;;0.60;0.50;;;16.80;59.60;18.90;93868.00;;;;10316102;28;45219;-67
2022/06/07 01:59:01;;;;;;;0.70;0.60;;;16.80;59.60;18.90;93851.00;;;;10316251;28;45791;-67
2022/06/07 02:04:22;;;;;;;0.30;0.30;;;16.80;59.60;18.90;93850.00;;;;10316142;28;45105;-67
2022/06/07 02:09:44;;;;;;;0.30;0.30;;;16.80;59.70;18.90;93849.00;;;;10315627;28;45205;-67
2022/06/07 02:15:06;;;;;;;0.63;0.40;;;16.80;59.60;18.90;93856.00;;;;10315487;28;45239;-67
2022/06/07 02:20:27;;;;;;;0.57;0.50;;;16.80;59.70;18.80;93839.00;;;;10315378;28;45166;-66
2022/06/07 02:25:55;;;;;;;0.38;0.38;;;16.70;59.60;18.80;93848.00;;;;10314359;28;45163;-67
2022/06/07 02:31:16;;;;;;;0.30;0.30;;;16.80;59.50;18.80;93841.00;;;;10315507;28;45690;-66
2022/06/07 02:36:38;;;;;;;0.40;0.40;;;16.70;59.70;18.80;93832.00;;;;10315035;28;45267;-67
2022/06/07 02:42:03;;;;;;;0.28;0.28;;;16.70;59.60;18.80;93826.00;;;;10315289;28;45167;-67
2022/06/07 02:47:24;;;;;;;0.50;0.38;;;16.70;59.60;18.80;93821.00;;;;10314661;28;45460;-67
2022/06/07 02:52:45;;;;;;;0.40;0.20;;;16.70;59.70;18.80;93819.00;;;;10314921;28;45187;-67
2022/06/07 02:58:07;;;;;;;0.30;0.30;;;16.70;59.70;18.80;93833.00;;;;10314341;28;45198;-66
2022/06/07 03:03:28;;;;;;;0.38;0.38;;;16.70;59.70;18.80;93827.00;;;;10314448;28;45171;-67
2022/06/07 03:08:49;;;;;;;0.47;0.30;;;16.70;59.70;18.80;93829.00;;;;10314206;28;45210;-67
2022/06/07 03:14:11;;;;;;;0.50;0.40;;;16.70;59.70;18.80;93812.00;;;;10314257;28;45174;-67
2022/06/07 03:19:32;;;;;;;0.22;0.22;;;16.70;59.70;18.80;93818.00;;;;10313411;28;45779;-67
2022/06/07 03:24:52;;;;;;;0.40;0.30;;;16.70;60.40;18.80;93831.00;;;;10313358;28;45906;-67
2022/06/07 03:30:15;;;;;;;0.40;0.30;;;16.70;59.70;18.80;93827.00;;;;10313580;28;45120;-66
2022/06/07 03:35:38;;;;;;;0.35;0.30;;;16.70;59.70;18.80;93825.00;;;;10313511;28;45213;-67
2022/06/07 03:40:59;;;;;;;0.20;0.17;;;16.70;59.70;18.80;93846.00;;;;10313853;28;45674;-66
2022/06/07 03:46:23;;;;;;;0.15;0.13;;;16.70;59.60;18.80;93854.00;;;;10335853;22;45112;-65
2022/06/07 03:51:43;;;;;;;0.40;0.25;;;16.70;59.70;18.80;93860.00;;;;10312620;28;45207;-62
2022/06/07 03:57:04;;;;;;;0.20;0.20;;;16.70;59.70;18.80;93845.00;;;;10336184;28;45177;-61
2022/06/07 04:02:27;;;;;;;0.30;0.30;;;16.70;59.50;18.80;93866.00;;;;10353330;28;45238;-61
2022/06/07 04:13:39;;;;;;;0.20;0.20;;;16.70;59.80;18.90;93881.00;;;;10226840;28;45304;-61
2022/06/07 04:19:01;;;;;;;0.43;0.22;;;16.80;59.70;18.90;93885.00;;;;10336633;28;45113;-60
2022/06/07 04:24:22;;;;;;;0.20;0.20;;;16.80;59.80;18.90;93891.00;;;;10352307;28;45794;-62
2022/06/07 04:29:43;;;;;;;0.10;0.10;;;16.80;59.70;19.00;93890.00;;;;10352765;28;45293;-60
2022/06/07 04:35:06;;;;;;;0.10;0.10;;;16.90;59.60;19.00;93892.00;;;;10358856;28;45174;-61
2022/06/07 04:40:27;;;;;;;0.22;0.20;;;16.90;59.60;19.00;93906.00;;;;10359215;28;45186;-61
2022/06/07 04:45:48;;;;;;;0.43;0.20;;;16.90;59.50;19.00;93902.00;;;;10357907;28;45254;-62
2022/06/07 04:51:13;;;;;;;0.30;0.20;;;17.00;59.50;19.00;93894.00;;;;10358675;28;45249;-61
2022/06/07 04:56:37;;;;;;;0.40;0.30;;;17.00;59.50;19.00;93905.00;;;;10358403;28;45187;-62
2022/06/07 05:01:57;;;;;;;0.38;0.20;;;17.00;59.40;19.10;93914.00;;;;10358547;28;45167;-61
2022/06/07 05:07:19;;;;;;;0.10;0.10;;;17.00;59.40;19.10;93905.00;;;;10357627;28;45252;-61
2022/06/07 05:12:40;;;;;;;0.15;0.15;;;17.00;59.50;19.10;93913.00;;;;10358231;28;45782;-60
2022/06/07 05:18:00;;;;;;;0.10;0.10;;;17.10;59.30;19.10;93911.00;;;;10357925;28;45153;-61
2022/06/07 05:23:23;;;;;;;0.20;0.20;;;17.00;60.00;19.10;93905.00;;;;10357994;28;45343;-62
2022/06/07 05:28:44;;;;;;;0.70;0.28;;;17.10;59.30;19.20;93929.00;;;;10356926;28;45706;-61
2022/06/07 05:34:05;;;;;;;0.52;0.20;;;17.10;59.30;19.10;93935.00;;;;10357452;28;45222;-61
2022/06/07 05:39:29;;;;;;;0.20;0.20;;;17.10;59.30;19.20;93925.00;;;;10357536;28;45241;-61
2022/06/07 05:44:50;;;;;;;0.28;0.10;;;17.10;59.10;19.20;93934.00;;;;10355792;28;45291;-61
2022/06/07 05:50:10;;;;;;;0.13;0.13;;;17.10;59.00;19.20;93934.00;;;;10356879;28;45182;-61
2022/06/07 05:55:32;;;;;;;0.50;0.20;;;17.10;59.00;19.20;93925.00;;;;10355859;28;45110;-61
2022/06/07 06:00:53;;;;;;;0.22;0.20;;;17.20;59.10;19.30;93935.00;;;;10356488;28;45201;-62
2022/06/07 06:06:14;;;;;;;0.25;0.10;;;17.20;58.90;19.40;93936.00;;;;10355696;28;45758;-59
2022/06/07 06:11:37;;;;;;;0.20;0.20;;;17.30;58.90;19.40;93930.00;;;;10355680;28;45256;-60
2022/06/07 06:16:57;;;;;;;0.13;0.10;;;17.30;58.70;19.40;93944.00;;;;10355558;28;45164;-60
2022/06/07 06:22:18;;;;;;;0.20;0.20;;;17.30;58.60;19.40;93944.00;;;;10354677;28;45147;-59
2022/06/07 06:27:39;;;;;;;0.20;0.10;;;17.40;58.50;19.40;93941.00;;;;10371183;28;45301;-60
2022/06/07 06:33:00;;;;;;;0.50;0.30;;;17.40;58.40;19.40;93938.00;;;;10395662;28;45187;-60
2022/06/07 06:38:22;;;;;;;0.13;0.10;;;17.40;58.40;19.40;93946.00;;;;10388119;28;45686;-60
2022/06/07 06:43:45;;;;;;;0.08;0.08;;;17.40;58.30;19.40;93940.00;;;;10328857;28;45203;-62
2022/06/07 06:49:06;;;;;;;0.82;0.10;;;17.40;58.20;19.50;93960.00;;;;10311556;28;45490;-60
2022/06/07 06:54:29;;;;;;;0.20;0.20;;;17.40;58.10;19.50;93952.00;;;;10312704;28;45854;-60
2022/06/07 06:59:51;;;;;;;0.20;0.20;;;17.40;58.10;19.50;93962.00;;;;10313314;28;45762;-64
2022/06/07 07:05:13;;;;;;;1.38;0.20;;;17.50;58.00;19.50;93964.00;;;;10313454;28;45258;-60
2022/06/07 07:10:34;;;;;;;0.50;0.20;;;17.50;58.30;19.50;93964.00;;;;10314077;28;45290;-60
2022/06/07 07:15:56;;;;;;;0.10;0.10;;;17.50;58.50;19.50;93971.00;;;;10313477;28;45269;-60
2022/06/07 07:21:19;;;;;;;0.50;0.20;;;17.50;58.50;19.50;93962.00;;;;10249714;28;45228;-61
2022/06/07 07:26:43;;;;;;;0.20;0.20;;;17.50;58.60;19.60;93967.00;;;;10371362;28;45195;-61
2022/06/07 07:32:06;;;;;;;0.43;0.15;;;17.50;58.60;19.60;93969.00;;;;10395048;28;45778;-61
2022/06/07 07:37:26;;;;;;;1.13;0.30;;;17.50;58.50;19.60;93979.00;;;;10376342;28;45213;-61
2022/06/07 07:42:47;;;;;;;0.17;0.17;;;17.50;58.60;19.60;93975.00;;;;10353212;28;45249;-61
2022/06/07 07:48:09;;;;;;;0.32;0.20;;;17.50;57.90;19.60;93976.00;;;;10352521;28;45197;-60
2022/06/07 07:53:29;;;;;;;0.50;0.20;;;17.50;58.50;19.60;93974.00;;;;10353657;28;45110;-60
2022/06/07 07:58:51;;;;;;;0.88;0.20;;;17.50;58.40;19.60;93969.00;;;;10352554;28;45769;-61
2022/06/07 08:04:13;;;;;;;0.52;0.20;;;17.50;59.00;19.60;93980.00;;;;10353147;28;45191;-61
2022/06/07 08:09:34;;;;;;;0.15;0.00;;;17.50;58.40;19.60;93964.00;;;;10359815;28;45771;-61
2022/06/07 08:14:55;;;;;;;0.43;0.20;;;17.50;58.30;19.60;93977.00;;;;10360412;28;45468;-60
2022/06/07 08:20:18;;;;;;;0.43;0.20;;;17.50;58.30;19.60;93957.00;;;;10359746;28;45757;-60
2022/06/07 08:25:39;;;;;;;0.10;0.10;;;17.30;58.20;19.60;93969.00;;;;10359212;28;45246;-61
2022/06/07 08:31:00;;;;;;;0.13;0.13;;;17.50;58.30;19.60;93975.00;;;;10359922;28;45909;-61
2022/06/07 08:42:05;;;;;;;1.20;0.10;;;17.50;58.20;19.60;93960.00;;;;10358621;28;45180;-60
2022/06/07 08:47:33;;;;;;;0.52;0.13;;;17.50;58.30;19.60;93963.00;;;;10358217;28;45447;-61
2022/06/07 08:53:00;;;;;;;1.02;0.25;;;17.50;58.30;19.60;93961.00;;;;10358995;28;45765;-61
2022/06/07 08:58:24;;;;;;;0.37;0.10;;;17.50;58.30;19.60;93954.00;;;;10359657;28;45455;-60
2022/06/07 09:04:02;;;;;;;0.65;0.17;;;17.50;58.30;19.60;93939.00;;;;10358051;28;45266;-60
2022/06/07 09:12:09;;;;;;;0.80;0.20;;;17.50;58.20;19.60;93942.00;;;;10357967;28;45806;-60
2022/06/07 09:15:16;;;;;;;0.20;0.10;;;17.60;58.30;19.60;93949.00;;;;10363423;28;45646;-60
2022/06/07 09:20:42;;;;;;;0.52;0.13;;;17.50;58.30;19.70;93941.00;;;;10396858;28;45761;-61
2022/06/07 09:26:24;;;;;;;0.13;0.10;;;17.50;58.20;19.60;93941.00;;;;10398447;28;45804;-60
2022/06/07 09:31:47;;;;;;;0.20;0.10;;;17.50;58.20;19.70;93960.00;;;;10398420;28;45213;-60
2022/06/07 09:37:17;;;;;;;0.43;0.22;;;17.50;58.20;19.70;93941.00;;;;10354411;28;45319;-61
2022/06/07 09:42:39;;;;;;;0.20;0.10;;;17.60;58.20;19.70;93934.00;;;;10324277;28;45290;-60
2022/06/07 09:48:30;;;;;;;0.55;0.20;;;17.50;58.10;19.70;93934.00;;;;10315573;28;45308;-61
2022/06/07 09:54:01;;;;;;;0.35;0.17;;;17.50;58.10;19.70;93926.00;;;;10394792;23;45750;-71
2022/06/07 09:59:49;;;;;;;0.20;0.20;;;17.60;58.10;19.70;93930.00;;;;10360128;28;45812;-71
2022/06/07 10:05:23;;;;;;;0.88;0.20;;;17.60;57.90;19.80;93926.00;;;;10392221;28;45227;-65
2022/06/07 10:10:51;;;;;;;0.75;0.20;;;17.60;58.10;19.80;93913.00;;;;10397333;28;45240;-68
2022/06/07 10:16:20;;;;;;;;;;;17.70;57.90;19.80;93909.00;;;;10394009;28;45189;-66
2022/06/07 10:22:04;;;;;;;0.85;0.20;;;17.70;58.10;19.90;93895.00;;;;10379276;28;46527;-69
2022/06/07 10:27:35;;;;;;;0.85;0.25;;;17.70;57.90;19.80;93883.00;;;;10378241;28;45551;-69
2022/06/07 10:33:35;;;;;;;0.40;0.20;;;17.80;58.20;19.80;93891.00;;;;10376880;28;45173;-69
2022/06/07 10:39:13;;;;;;;0.82;0.30;;;17.70;58.20;19.80;93895.00;;;;10373333;28;45790;-69
2022/06/07 10:44:38;;;;;;;0.30;0.20;;;17.70;58.30;19.80;93879.00;;;;10372938;28;45838;-70
2022/06/07 10:50:06;;;;;;;1.05;0.20;;;17.70;58.20;19.80;93883.00;;;;10382381;28;45330;-69
2022/06/07 10:55:39;;;;;;;0.75;0.20;;;17.70;58.30;19.80;93884.00;;;;10363252;28;45889;-69
2022/06/07 11:01:07;;;;;;;0.30;0.22;;;17.70;58.20;19.80;93875.00;;;;10390497;28;45258;-70
2022/06/07 11:12:24;;;;;;;0.40;0.10;;;17.70;58.20;19.80;93859.00;;;;10392270;28;45158;-69
2022/06/07 11:17:49;;;;;;;0.68;0.30;;;17.70;58.10;19.80;93862.00;;;;10393028;28;45134;-69
2022/06/07 11:23:19;;;;;;;0.50;0.20;;;17.70;58.10;19.80;93858.00;;;;10395742;28;45236;-69
2022/06/07 11:28:46;;;;;;;0.20;0.20;;;17.70;58.70;19.80;93855.00;;;;10394651;28;45412;-69
2022/06/07 11:34:23;;;;;;;1.30;0.20;;;17.70;58.00;19.80;93852.00;;;;10394087;28;45346;-69
2022/06/07 11:40:27;;;;;;;2.27;0.17;;;17.70;58.00;19.80;93838.00;;;;10395101;28;45168;-69
2022/06/07 11:45:53;;;;;;;0.22;0.13;;;17.70;58.00;19.80;93836.00;;;;10402563;28;45128;-69
2022/06/07 11:51:18;;;;;;;0.22;0.10;;;17.70;58.00;19.80;93842.00;;;;10402037;28;45388;-69
2022/06/07 11:56:45;;;;;;;0.10;0.10;;;17.70;58.00;19.80;93830.00;;;;10390940;28;45298;-69
2022/06/07 12:02:26;;;;;;;0.35;0.20;;;17.70;57.90;19.90;93821.00;;;;10398537;28;45260;-69
2022/06/07 12:07:53;;;;;;;0.30;0.10;;;17.70;58.00;19.90;93819.00;;;;10358674;28;45435;-69
2022/06/07 12:13:49;;;;;;;0.30;0.15;;;17.70;57.90;19.90;93821.00;;;;10359922;28;45754;-69
2022/06/07 12:19:02;;;;;;;0.30;0.17;;;17.70;57.80;19.90;93808.00;;;;10390903;28;45329;-69
2022/06/07 12:24:24;;;;;;;0.35;0.10;;;17.70;57.80;19.90;93814.00;;;;10399134;28;45832;-69
2022/06/07 12:29:46;;;;;;;0.40;0.10;;;17.70;57.80;19.80;93819.00;;;;10401119;28;45239;-69
2022/06/07 12:35:21;;;;;;;0.47;0.28;;;17.70;57.80;19.80;93830.00;;;;10401374;28;45080;-69
2022/06/07 12:40:52;;;;;;;0.55;0.10;;;17.70;57.90;19.80;93827.00;;;;10400806;28;45182;-69
2022/06/07 12:46:23;;;;;;;0.30;0.20;;;17.60;57.90;19.80;93837.00;;;;10400603;28;45424;-69
2022/06/07 12:51:43;;;;;;;0.10;0.10;;;17.60;57.90;19.80;93848.00;;;;10398212;28;45093;-69
2022/06/07 12:57:16;;;;;;;0.40;0.20;;;17.60;57.90;19.80;93844.00;;;;10400421;28;45789;-69
2022/06/07 13:02:44;;;;;;;0.32;0.20;;;17.60;58.00;19.80;93858.00;;;;10378625;28;45190;-70
2022/06/07 13:08:18;;;;;;;0.10;0.10;;;17.60;57.90;19.80;93865.00;;;;10378136;28;45806;-69
2022/06/07 13:13:41;;;;;;;0.17;0.10;;;17.70;57.70;19.90;93862.00;;;;10384243;28;45188;-68
2022/06/07 13:19:19;;;;;;;0.30;0.15;;;17.80;57.80;19.90;93852.00;;;;10370771;28;45441;-68
2022/06/07 13:24:43;;;;;;;0.52;0.15;;;17.80;57.70;19.90;93824.00;;;;10382108;28;45773;-67
2022/06/07 13:30:14;;;;;;;1.10;0.20;;;17.80;58.00;20.00;93819.00;;;;10379422;28;45382;-70
2022/06/07 13:35:44;;;;;;;0.13;0.13;;;17.90;57.80;20.00;93819.00;;;;10378118;28;45122;-70
2022/06/07 13:41:19;;;;;;;0.77;0.20;;;17.90;57.90;20.00;93816.00;;;;10392234;28;45124;-69
2022/06/07 13:46:52;;;;;;;0.30;0.20;;;17.90;58.00;20.10;93811.00;;;;10380277;28;45177;-68
2022/06/07 13:58:10;;;;;;;1.08;0.38;;;18.00;57.90;20.20;93787.00;;;;10373990;28;45212;-69
2022/06/07 14:03:36;;;;;;;1.70;0.32;;;18.10;57.80;20.30;93797.00;;;;10383136;28;45169;-68
2022/06/07 14:09:00;;;;;;;0.73;0.20;;;18.10;57.60;20.30;93791.00;;;;10378597;28;45090;-67
2022/06/07 14:14:21;;;;;;;0.20;0.10;;;18.20;57.60;20.30;93784.00;;;;10376444;28;45880;-69
2022/06/07 14:19:49;;;;;;;0.75;0.10;;;18.20;57.60;20.30;93784.00;;;;10381949;28;46051;-68
2022/06/07 14:25:17;;;;;;;1.20;0.20;;;18.20;57.70;20.30;93760.00;;;;10377717;28;45762;-68
2022/06/07 14:30:38;;;;;;;0.10;0.10;;;18.20;57.50;20.40;93773.00;;;;10372805;28;45367;-70
2022/06/07 14:35:59;;;;;;;0.77;0.10;;;18.30;57.90;20.40;93784.00;;;;10356617;28;45106;-71
2022/06/07 14:41:21;;;;;;;0.98;0.20;;;18.30;57.70;20.40;93770.00;;;;10356421;28;45460;-71
2022/06/07 14:46:42;;;;;;;2.03;0.35;;;18.30;57.60;20.40;93781.00;;;;10356146;28;45865;-70
2022/06/07 14:52:06;;;;;;;1.17;0.30;;;18.30;57.50;20.40;93793.00;;;;10355586;28;45237;-70
2022/06/07 14:57:29;;;;;;;0.60;0.20;;;18.30;57.30;20.40;93781.00;;;;10355030;28;45232;-70
2022/06/07 15:02:54;;;;;;;0.73;0.22;;;18.30;57.20;20.40;93793.00;;;;10355552;28;45214;-71
2022/06/07 15:08:22;;;;;;;1.80;0.28;;;18.30;57.20;20.50;93788.00;;;;10355420;28;45104;-70
2022/06/07 15:13:43;;;;;;;0.52;0.20;;;18.30;57.10;20.40;93789.00;;;;10355274;28;45187;-71
2022/06/07 15:19:08;;;;;;;0.20;0.20;;;18.30;57.00;20.40;93791.00;;;;10392841;28;45215;-70
2022/06/07 15:24:29;;;;;;;0.45;0.20;;;18.30;56.90;20.40;93778.00;;;;10389241;28;45146;-70
2022/06/07 15:29:52;;;;;;;0.13;0.10;;;18.30;56.90;20.40;93802.00;;;;10395179;28;45169;-71
2022/06/07 15:35:16;;;;;;;0.32;0.10;;;18.20;56.90;20.40;93793.00;;;;10396010;28;45844;-70
2022/06/07 15:40:37;;;;;;;0.20;0.20;;;18.20;56.90;20.40;93796.00;;;;10395055;28;45196;-71
2022/06/07 15:45:59;;;;;;;0.88;0.20;;;18.20;56.80;20.40;93784.00;;;;10393622;28;45785;-70
2022/06/07 15:51:20;;;;;;;0.50;0.20;;;18.20;56.70;20.30;93785.00;;;;10401134;23;45229;-59
2022/06/07 15:56:40;;;;;;;0.25;0.22;;;18.20;56.70;20.30;93787.00;;;;10353070;28;45201;-60
2022/06/07 16:02:02;;;;;;;0.65;0.30;;;18.20;56.80;20.30;93778.00;;;;10374210;28;45670;-60
2022/06/07 16:07:23;;;;;;;0.45;0.20;;;18.20;56.80;20.30;93789.00;;;;10394474;28;45525;-61
2022/06/07 16:12:46;;;;;;;0.30;0.20;;;18.20;56.70;20.30;93788.00;;;;10394047;28;45167;-60
2022/06/07 16:18:09;;;;;;;0.25;0.17;;;18.10;56.70;20.30;93797.00;;;;10393813;28;45701;-60
2022/06/07 16:23:30;;;;;;;0.38;0.30;;;18.10;56.80;20.30;93798.00;;;;10393960;28;45112;-60
2022/06/07 16:34:31;;;;;;;0.25;0.20;;;18.10;56.70;20.30;93787.00;;;;10401099;28;45105;-60
2022/06/07 16:39:52;;;;;;;1.67;0.30;;;18.20;56.70;20.30;93773.00;;;;10400384;28;45105;-60
2022/06/07 16:45:13;;;;;;;1.23;0.38;;;18.20;56.50;20.40;93764.00;;;;10395842;28;45237;-61
2022/06/07 16:50:35;;;;;;;0.55;0.30;;;18.20;56.50;20.40;93777.00;;;;10396121;28;45370;-61
2022/06/07 16:55:56;;;;;;;1.00;0.20;;;18.20;56.50;20.40;93759.00;;;;10399361;28;45678;-60
2022/06/07 17:01:17;;;;;;;0.70;0.10;;;18.20;56.40;20.40;93770.00;;;;10399533;28;45760;-60
2022/06/07 17:06:40;;;;;;;0.75;0.28;;;18.30;56.60;20.40;93758.00;;;;10398800;28;45162;-62
2022/06/07 17:12:01;;;;;;;0.13;0.13;;;18.30;56.50;20.40;93777.00;;;;10399271;28;45880;-62
2022/06/07 17:17:22;;;;;;;2.00;0.22;;;18.30;56.50;20.40;93777.00;;;;10396208;28;45330;-60
2022/06/07 17:22:43;;;;;;;0.30;0.25;;;18.30;56.50;20.40;93781.00;;;;10398243;28;45146;-61
2022/06/07 17:28:05;;;;;;;1.27;0.32;;;18.30;56.60;20.40;93779.00;;;;10398011;28;45169;-61
2022/06/07 17:33:25;;;;;;;0.30;0.30;;;18.30;56.60;20.40;93783.00;;;;10396813;28;45102;-60
2022/06/07 17:38:48;;;;;;;0.93;0.30;;;18.30;56.80;20.40;93777.00;;;;10396296;28;45102;-60
2022/06/07 17:44:09;;;;;;;0.38;0.20;;;18.30;56.90;20.30;93778.00;;;;10398012;28;45098;-61
2022/06/07 17:49:29;;;;;;;1.15;0.20;;;18.20;56.90;20.30;93762.00;;;;10397306;28;45160;-61
2022/06/07 17:54:51;;;;;;;0.40;0.20;;;18.20;56.90;20.30;93781.00;;;;10398046;28;45166;-60
2022/06/07 18:00:14;;;;;;;1.08;0.30;;;18.20;57.00;20.30;93782.00;;;;10395791;28;45124;-59
2022/06/07 18:05:38;;;;;;;1.20;0.20;;;18.20;57.00;20.30;93781.00;;;;10396688;28;45363;-58
2022/06/07 18:11:01;;;;;;;1.38;0.30;;;18.20;57.60;20.30;93796.00;;;;10396928;28;45217;-60
2022/06/07 18:16:21;;;;;;;1.02;0.22;;;18.20;57.30;20.30;93786.00;;;;10396990;28;45237;-61
2022/06/07 18:21:43;;;;;;;0.82;0.25;;;18.10;57.50;20.30;93777.00;;;;10389379;28;45180;-61
2022/06/07 18:27:05;;;;;;;0.73;0.35;;;18.10;57.20;20.30;93790.00;;;;10375827;28;45941;-60
2022/06/07 18:32:26;;;;;;;2.28;0.43;;;18.10;57.30;20.30;93777.00;;;;10376922;28;45286;-60
2022/06/07 18:37:46;;;;;;;1.60;0.57;;;18.10;57.10;20.30;93802.00;;;;10381487;28;45517;-60
2022/06/07 18:43:11;;;;;;;1.58;0.50;;;18.10;57.00;20.20;93799.00;;;;10377858;28;45826;-60
2022/06/07 18:48:31;;;;;;;1.42;0.50;;;18.10;57.10;20.20;93807.00;;;;10384535;28;45142;-60
2022/06/07 18:53:53;;;;;;;3.55;1.15;;;18.10;57.10;20.20;93813.00;;;;10392837;28;45806;-61
2022/06/07 18:59:14;;;;;;;4.03;1.23;;;18.00;57.30;20.20;93821.00;;;;10395440;28;45469;-59
2022/06/07 19:04:35;;;;;;;4.80;1.30;;;18.00;57.40;20.20;93825.00;;;;10395692;28;45219;-60
2022/06/07 19:09:58;;;;;;;2.75;1.20;;;18.00;57.40;20.10;93809.00;;;;10395013;28;45200;-61
2022/06/07 19:15:26;;;;;;;2.63;1.02;;;18.00;57.50;20.10;93817.00;;;;10395585;28;45100;-61
2022/06/07 19:20:50;;;;;;;1.92;0.82;;;18.00;57.40;20.10;93827.00;;;;10390427;28;45186;-61
2022/06/07 19:26:11;;;;;;;2.60;0.90;;;17.90;57.40;20.10;93833.00;;;;10394800;28;45109;-61
2022/06/07 19:31:33;;;;;;;1.73;0.90;;;17.90;57.40;20.00;93836.00;;;;10394516;28;45152;-60
2022/06/07 19:36:55;;;;;;;3.38;0.90;;;17.90;57.50;20.00;93849.00;;;;10391634;28;46060;-61
2022/06/07 19:42:16;;;;;;;3.20;0.90;;;17.90;57.50;20.00;93857.00;;;;10395071;28;45161;-60
2022/06/07 19:47:38;;;;;;;3.53;0.90;;;17.80;57.50;19.90;93861.00;;;;10393385;28;45225;-61
2022/06/07 19:52:59;;;;;;;3.42;0.70;;;17.80;57.50;19.90;93873.00;;;;10393917;28;45089;-61
2022/06/07 19:58:21;;;;;;;3.47;0.80;;;17.80;57.50;19.90;93860.00;;;;10353177;28;45085;-61
2022/06/07 20:03:43;;;;;;;3.00;0.77;;;17.70;57.40;19.90;93877.00;;;;10358231;28;45102;-61
2022/06/07 20:09:04;;;;;;;2.33;0.73;;;17.70;57.40;19.90;93874.00;;;;10359513;28;45216;-61
2022/06/07 20:14:24;;;;;;;2.72;1.00;;;17.70;57.40;19.80;93881.00;;;;10359974;28;45182;-60
2022/06/07 20:19:47;;;;;;;3.17;0.65;;;17.70;57.30;19.80;93886.00;;;;10359794;28;45194;-61
2022/06/07 20:25:10;;;;;;;2.58;0.77;;;17.70;57.30;19.80;93884.00;;;;10360322;28;45790;-61
2022/06/07 20:30:31;;;;;;;1.58;0.50;;;17.60;57.30;19.80;93877.00;;;;10359685;28;45450;-60
2022/06/07 20:35:53;;;;;;;1.35;0.50;;;17.60;57.30;19.80;93886.00;;;;10359141;28;45913;-60
2022/06/07 20:41:15;;;;;;;1.08;0.52;;;17.60;57.60;19.70;93869.00;;;;10361295;28;46587;-60
2022/06/07 20:46:36;;;;;;;1.15;0.52;;;17.60;57.30;19.70;93872.00;;;;10358939;28;45786;-60
2022/06/07 20:51:57;;;;;;;1.95;0.52;;;17.60;57.20;19.70;93883.00;;;;10358153;28;45202;-61
2022/06/07 20:57:18;;;;;;;2.58;0.57;;;17.50;57.20;19.70;93884.00;;;;10377501;28;45749;-60
2022/06/07 21:02:39;;;;;;;1.85;0.60;;;17.50;57.10;19.70;93878.00;;;;10399505;28;45115;-61
2022/06/07 21:08:01;;;;;;;1.65;0.50;;;17.50;57.10;19.70;93866.00;;;;10398002;28;45841;-60
2022/06/07 21:13:22;;;;;;;1.10;0.40;;;17.50;57.10;19.60;93875.00;;;;10393425;28;45142;-59
2022/06/07 21:18:42;;;;;;;0.63;0.40;;;17.50;57.10;19.60;93866.00;;;;10395718;28;45186;-61
2022/06/07 21:24:05;;;;;;;1.38;0.52;;;17.50;57.10;19.60;93861.00;;;;10399161;28;45390;-62
2022/06/07 21:29:26;;;;;;;1.50;0.57;;;17.50;57.00;19.60;93854.00;;;;10398705;28;45274;-60
2022/06/07 21:34:46;;;;;;;1.70;0.35;;;17.50;57.00;19.60;93855.00;;;;10398460;28;45158;-59
2022/06/07 21:40:11;;;;;;;1.98;0.60;;;17.40;57.00;19.60;93840.00;;;;10398580;28;45218;-61
2022/06/07 21:45:32;;;;;;;0.85;0.43;;;17.40;57.00;19.60;93839.00;;;;10397332;28;45174;-60
2022/06/07 21:50:54;;;;;;;0.90;0.40;;;17.40;57.00;19.60;93844.00;;;;10427735;22;45656;-69
2022/06/07 21:56:16;;;;;;;0.75;0.40;;;17.40;57.00;19.50;93854.00;;;;10356198;28;45774;-69
2022/06/07 22:01:37;;;;;;;1.90;0.57;;;17.40;56.90;19.50;93839.00;;;;10370490;28;45170;-69
2022/06/07 22:06:57;;;;;;;0.52;0.30;;;17.40;56.90;19.50;93843.00;;;;10398165;28;45234;-68
2022/06/07 22:12:19;;;;;;;0.70;0.40;;;17.40;57.00;19.50;93845.00;;;;10397677;28;45186;-68
2022/06/07 22:17:40;;;;;;;0.68;0.43;;;17.40;56.90;19.50;93825.00;;;;10397587;28;45092;-68
2022/06/07 22:23:02;;;;;;;1.67;0.50;;;17.30;56.90;19.50;93807.00;;;;10397512;28;46005;-68
2022/06/07 22:28:24;;;;;;;1.02;0.50;;;17.30;56.90;19.50;93818.00;;;;10397279;28;45372;-68
2022/06/07 22:34:05;;;;;;;0.68;0.30;;;17.30;56.90;19.40;93821.00;;;;10397251;28;45250;-68
2022/06/07 22:39:28;;;;;;;0.88;0.40;;;17.30;56.90;19.40;93808.00;;;;10397133;28;45171;-68
2022/06/07 22:44:50;;;;;;;1.27;0.45;;;17.30;56.80;19.40;93804.00;;;;10397542;28;45344;-69
2022/06/07 22:50:12;;;;;;;1.00;0.30;;;17.30;56.90;19.40;93811.00;;;;10396397;28;45702;-68
2022/06/07 22:55:38;;;;;;;0.85;0.30;;;17.20;56.80;19.40;93792.00;;;;10396553;28;45163;-68
2022/06/07 23:01:04;;;;;;;0.90;0.30;;;17.30;56.80;19.40;93797.00;;;;10396309;28;45844;-69
2022/06/07 23:06:31;;;;;;;1.75;0.32;;;17.20;56.90;19.40;93800.00;;;;10396569;28;45225;-67
2022/06/07 23:11:51;;;;;;;0.80;0.30;;;17.20;56.80;19.40;93793.00;;;;10396060;28;45097;-68
2022/06/07 23:17:19;;;;;;;0.50;0.30;;;17.20;56.80;19.40;93795.00;;;;10396087;28;45131;-68
2022/06/07 23:22:40;;;;;;;1.25;0.60;;;17.20;56.80;19.30;93774.00;;;;10395528;28;45178;-68
2022/06/07 23:28:01;;;;;;;1.25;0.40;;;17.20;56.80;19.30;93788.00;;;;10395597;28;45119;-69
2022/06/07 23:33:22;;;;;;;0.90;0.40;;;17.20;56.70;19.30;93768.00;;;;10395649;28;45117;-69
2022/06/07 23:38:45;;;;;;;0.50;0.30;;;17.20;56.70;19.30;93769.00;;;;10404918;28;45230;-68
2022/06/07 23:44:06;;;;;;;1.05;0.40;;;17.20;56.70;19.30;93764.00;;;;10408883;28;45180;-69
2022/06/07 23:49:33;;;;;;;1.50;0.55;;;17.20;56.70;19.30;93770.00;;;;10407643;28;45143;-69
2022/06/07 23:54:58;;;;;;;1.02;0.50;;;17.20;56.70;19.30;93747.00;;;;10407193;28;45106;-69
